Donnes mto: Actuelle vendredi, 03/04/2020 09:00
Date Horaire Temp. E. Hum. E. P.atmo. Pluie Vent Direction Direction Ensoleilleme Solaire P. de rose Temp au vent Rafales
03/04/2020 09:00 1,7 C 78 % 1017,5 hPa 0,0 l/m 0,0 km/h (0 Bft) SO 215 5 min 148 W/m -1,7 C 1,7 C 0,0 km/h (0 Bft)
03/04/2020 08:00 -0,7 C 86 % 1017,0 hPa 0,0 l/m 0,0 km/h (0 Bft) N 0 0 min 28 W/m -2,7 C -0,7 C 0,0 km/h (0 Bft)
03/04/2020 05:15 -0,4 C 82 % 1015,8 hPa 0,0 l/m 0,0 km/h (0 Bft) N 0 0 min 0 W/m -3,1 C -0,4 C 0,0 km/h (0 Bft)
03/04/2020 02:30 2,7 C 69 % 1015,1 hPa 0,0 l/m 0,0 km/h (0 Bft) N 0 0 min 0 W/m -2,4 C 2,7 C 0,0 km/h (0 Bft)
02/04/2020 23:45 6,2 C 51 % 1014,1 hPa 0,0 l/m 0,0 km/h (0 Bft) O 270 0 min 0 W/m -3,2 C 6,2 C 9,7 km/h (2 Bft)
02/04/2020 22:30 5,8 C 55 % 1013,7 hPa 0,0 l/m 0,0 km/h (0 Bft) O 263 0 min 0 W/m -2,5 C 5,8 C 0,0 km/h (0 Bft)
02/04/2020 21:35 7,6 C 47 % 1013,4 hPa 0,0 l/m 0,0 km/h (0 Bft) O 263 0 min 0 W/m -3,0 C 7,6 C 0,0 km/h (0 Bft)
02/04/2020 20:40 9,8 C 36 % 1012,8 hPa 0,0 l/m 0,0 km/h (0 Bft) SO 217 0 min 0 W/m -4,5 C 9,8 C 1,6 km/h (1 Bft)
02/04/2020 19:45 11,4 C 33 % 1012,4 hPa 0,0 l/m 2,4 km/h (1 Bft) SO 232 5 min 18 W/m -4,3 C 11,4 C 9,7 km/h (2 Bft)
02/04/2020 18:50 12,5 C 28 % 1012,0 hPa 0,0 l/m 8,0 km/h (2 Bft) O 267 60 min 153 W/m -5,5 C 11,5 C 17,7 km/h (3 Bft)
02/04/2020 17:55 12,9 C 25 % 1012,0 hPa 0,0 l/m 8,6 km/h (2 Bft) O-NO 286 60 min 334 W/m -6,6 C 11,5 C 16,1 km/h (3 Bft)
02/04/2020 17:00 12,9 C 26 % 1012,1 hPa 0,0 l/m 13,0 km/h (3 Bft) NO 311 60 min 480 W/m -6,1 C 9,4 C 20,9 km/h (4 Bft)
02/04/2020 16:05 12,7 C 31 % 1012,4 hPa 0,0 l/m 6,1 km/h (2 Bft) O-SO 239 60 min 608 W/m -4,0 C 12,7 C 14,5 km/h (3 Bft)
02/04/2020 15:10 12,3 C 35 % 1012,7 hPa 0,0 l/m 9,9 km/h (2 Bft) N-NO 330 60 min 691 W/m -2,7 C 10,2 C 16,1 km/h (3 Bft)
02/04/2020 14:15 11,8 C 36 % 1013,2 hPa 0,0 l/m 9,8 km/h (2 Bft) O 259 60 min 745 W/m -2,8 C 9,7 C 17,7 km/h (3 Bft)
02/04/2020 13:20 11,1 C 37 % 1013,9 hPa 0,0 l/m 6,5 km/h (2 Bft) SO 235 60 min 754 W/m -3,0 C 11,1 C 17,7 km/h (3 Bft)
02/04/2020 12:25 10,1 C 41 % 1014,1 hPa 0,0 l/m 2,6 km/h (1 Bft) S-SO 195 60 min 712 W/m -2,5 C 10,1 C 9,7 km/h (2 Bft)
02/04/2020 11:30 8,4 C 45 % 1014,5 hPa 0,0 l/m 3,2 km/h (1 Bft) O-SO 248 60 min 628 W/m -2,8 C 8,4 C 12,9 km/h (3 Bft)
02/04/2020 10:35 5,7 C 54 % 1014,7 hPa 0,0 l/m 0,2 km/h (0 Bft) N-NE 28 35 min 341 W/m -2,9 C 5,7 C 1,6 km/h (1 Bft)
02/04/2020 10:00 3,6 C 62 % 1014,6 hPa 0,0 l/m 0,0 km/h (0 Bft) NE 54 0 min 153 W/m -3,0 C 3,6 C 0,0 km/h (0 Bft)
_ Min-Heure 07:00 17:45 17:45 - 10:00 - - - - 17:45 07:00 10:00
Minimum _ -1,4 C 24 % 1012,0 hPa - 0,0 km/h (0 Bft) - - - - -7,4 C -1,4 C 0,0 km/h (0 Bft)
_ Max-Heure 16:20 08:10 09:00 10:00 16:30 - - 10:00 13:40 09:00 16:05 16:30
Maximum _ 12,9 C 87 % 1017,5 hPa 0,0 l/m 14,3 km/h
SO (3 Bft)
- - 5 min 756 W/m -1,7 C 12,7 C 25,7 km/h
O (4 Bft)
Moyenne _ 6,3 C 54 % 1014,2 hPa #0,0 l/m 2,8 km/h (1 Bft) O - #5 min. 55 W/m -3,3 C 5,9 C 6,6 km/h (2 Bft)